sensor_id;sensor_type;location;lat;lon;timestamp;pressure;altitude;pressure_sealevel;temperature;humidity
38616;BME280;24370;51.986;4.666;2023-10-09T00:00:54;102100.22;;;25.20;48.92
38616;BME280;24370;51.986;4.666;2023-10-09T00:03:35;102093.91;;;25.03;49.05
38616;BME280;24370;51.986;4.666;2023-10-09T00:06:02;102104.00;;;25.16;48.71
38616;BME280;24370;51.986;4.666;2023-10-09T00:08:29;102098.47;;;25.19;48.44
38616;BME280;24370;51.986;4.666;2023-10-09T00:10:59;102097.06;;;25.12;48.63
38616;BME280;24370;51.986;4.666;2023-10-09T00:13:38;102089.50;;;25.20;48.39
38616;BME280;24370;51.986;4.666;2023-10-09T00:16:10;102093.59;;;24.75;49.90
38616;BME280;24370;51.986;4.666;2023-10-09T00:18:40;102092.03;;;25.05;48.70
38616;BME280;24370;51.986;4.666;2023-10-09T00:21:14;102092.81;;;24.90;49.58
38616;BME280;24370;51.986;4.666;2023-10-09T00:23:41;102088.97;;;24.96;48.89
38616;BME280;24370;51.986;4.666;2023-10-09T00:26:07;102086.91;;;25.18;49.14
38616;BME280;24370;51.986;4.666;2023-10-09T00:28:41;102093.66;;;24.90;49.96
38616;BME280;24370;51.986;4.666;2023-10-09T00:31:09;102094.16;;;25.16;49.44
38616;BME280;24370;51.986;4.666;2023-10-09T00:33:40;102102.31;;;24.22;51.54
38616;BME280;24370;51.986;4.666;2023-10-09T00:36:07;102090.59;;;24.44;51.51
38616;BME280;24370;51.986;4.666;2023-10-09T00:38:39;102083.44;;;25.16;49.83
38616;BME280;24370;51.986;4.666;2023-10-09T00:41:15;102084.41;;;25.33;49.38
38616;BME280;24370;51.986;4.666;2023-10-09T00:43:54;102088.94;;;25.31;49.44
38616;BME280;24370;51.986;4.666;2023-10-09T00:46:24;102090.28;;;25.04;50.23
38616;BME280;24370;51.986;4.666;2023-10-09T00:48:59;102088.53;;;24.49;52.05
38616;BME280;24370;51.986;4.666;2023-10-09T00:51:28;102074.47;;;25.17;50.57
38616;BME280;24370;51.986;4.666;2023-10-09T00:54:01;102093.03;;;24.68;51.55
38616;BME280;24370;51.986;4.666;2023-10-09T00:56:33;102083.44;;;24.99;51.15
38616;BME280;24370;51.986;4.666;2023-10-09T00:59:08;102079.78;;;25.52;50.05
38616;BME280;24370;51.986;4.666;2023-10-09T01:01:38;102072.22;;;24.75;52.04
38616;BME280;24370;51.986;4.666;2023-10-09T01:04:05;102072.91;;;25.13;51.02
38616;BME280;24370;51.986;4.666;2023-10-09T01:06:45;102073.22;;;25.42;50.39
38616;BME280;24370;51.986;4.666;2023-10-09T01:09:13;102078.72;;;24.86;51.63
38616;BME280;24370;51.986;4.666;2023-10-09T01:11:40;102072.13;;;24.94;51.81
38616;BME280;24370;51.986;4.666;2023-10-09T01:14:15;102072.56;;;25.54;50.06
38616;BME280;24370;51.986;4.666;2023-10-09T01:16:41;102066.56;;;25.32;51.24
38616;BME280;24370;51.986;4.666;2023-10-09T01:19:07;102054.97;;;25.82;50.05
38616;BME280;24370;51.986;4.666;2023-10-09T01:21:42;102042.31;;;25.01;52.28
38616;BME280;24370;51.986;4.666;2023-10-09T01:24:08;102050.28;;;24.85;53.38
38616;BME280;24370;51.986;4.666;2023-10-09T01:26:38;102044.41;;;25.63;50.80
38616;BME280;24370;51.986;4.666;2023-10-09T01:29:19;102033.72;;;25.12;52.08
38616;BME280;24370;51.986;4.666;2023-10-09T01:31:55;102031.78;;;24.27;54.39
38616;BME280;24370;51.986;4.666;2023-10-09T01:34:33;102036.69;;;25.23;51.76
38616;BME280;24370;51.986;4.666;2023-10-09T01:37:10;102025.97;;;24.90;52.65
38616;BME280;24370;51.986;4.666;2023-10-09T01:39:49;102022.16;;;25.63;51.41
38616;BME280;24370;51.986;4.666;2023-10-09T01:42:16;102026.22;;;24.85;52.64
38616;BME280;24370;51.986;4.666;2023-10-09T01:44:54;102029.63;;;25.22;52.32
38616;BME280;24370;51.986;4.666;2023-10-09T01:47:20;102025.09;;;24.72;53.54
38616;BME280;24370;51.986;4.666;2023-10-09T01:49:47;102016.78;;;25.63;51.17
38616;BME280;24370;51.986;4.666;2023-10-09T01:52:18;102027.16;;;25.02;52.20
38616;BME280;24370;51.986;4.666;2023-10-09T01:54:45;102030.66;;;25.20;52.57
38616;BME280;24370;51.986;4.666;2023-10-09T01:57:18;102020.91;;;25.19;51.73
38616;BME280;24370;51.986;4.666;2023-10-09T01:59:48;102015.41;;;25.55;50.96
38616;BME280;24370;51.986;4.666;2023-10-09T02:02:16;102014.91;;;26.13;49.98
38616;BME280;24370;51.986;4.666;2023-10-09T02:04:59;102011.81;;;26.04;49.73
38616;BME280;24370;51.986;4.666;2023-10-09T02:07:39;102013.06;;;25.32;51.68
38616;BME280;24370;51.986;4.666;2023-10-09T02:10:17;102013.31;;;25.61;50.91
38616;BME280;24370;51.986;4.666;2023-10-09T02:13:05;102016.03;;;25.93;50.65
38616;BME280;24370;51.986;4.666;2023-10-09T02:15:38;102015.16;;;25.27;51.81
38616;BME280;24370;51.986;4.666;2023-10-09T02:23:30;101998.50;;;25.04;52.91
38616;BME280;24370;51.986;4.666;2023-10-09T02:26:05;101992.41;;;24.84;53.76
38616;BME280;24370;51.986;4.666;2023-10-09T02:28:32;101991.56;;;25.35;52.67
38616;BME280;24370;51.986;4.666;2023-10-09T02:30:59;101993.81;;;25.59;51.72
38616;BME280;24370;51.986;4.666;2023-10-09T02:33:26;101999.84;;;25.46;51.77
38616;BME280;24370;51.986;4.666;2023-10-09T02:35:59;102002.38;;;25.81;51.15
38616;BME280;24370;51.986;4.666;2023-10-09T02:38:30;102001.94;;;25.57;51.24
38616;BME280;24370;51.986;4.666;2023-10-09T02:40:58;102001.50;;;25.31;52.05
38616;BME280;24370;51.986;4.666;2023-10-09T02:43:34;101990.53;;;25.69;51.72
38616;BME280;24370;51.986;4.666;2023-10-09T02:46:10;101995.38;;;25.79;50.85
38616;BME280;24370;51.986;4.666;2023-10-09T02:48:58;101988.78;;;26.00;50.96
38616;BME280;24370;51.986;4.666;2023-10-09T02:51:25;101990.53;;;25.85;50.71
38616;BME280;24370;51.986;4.666;2023-10-09T02:54:01;101985.19;;;26.17;50.23
38616;BME280;24370;51.986;4.666;2023-10-09T02:56:36;101988.09;;;25.65;51.11
38616;BME280;24370;51.986;4.666;2023-10-09T02:59:05;101989.16;;;25.78;50.76
38616;BME280;24370;51.986;4.666;2023-10-09T03:01:33;101982.75;;;25.49;52.26
38616;BME280;24370;51.986;4.666;2023-10-09T03:04:00;101976.34;;;25.99;51.58
38616;BME280;24370;51.986;4.666;2023-10-09T03:06:28;101973.53;;;25.86;51.22
38616;BME280;24370;51.986;4.666;2023-10-09T03:09:00;101978.34;;;25.14;54.18
38616;BME280;24370;51.986;4.666;2023-10-09T03:11:25;101976.19;;;25.54;52.28
38616;BME280;24370;51.986;4.666;2023-10-09T03:13:52;101973.00;;;25.96;51.37
38616;BME280;24370;51.986;4.666;2023-10-09T03:16:18;101969.09;;;26.01;51.23
38616;BME280;24370;51.986;4.666;2023-10-09T03:18:49;101970.84;;;25.86;52.04
38616;BME280;24370;51.986;4.666;2023-10-09T03:21:15;101972.94;;;26.13;51.13
38616;BME280;24370;51.986;4.666;2023-10-09T03:23:42;101968.09;;;26.04;51.16
38616;BME280;24370;51.986;4.666;2023-10-09T03:26:09;101964.72;;;26.47;50.61
38616;BME280;24370;51.986;4.666;2023-10-09T03:28:35;101981.19;;;26.24;50.86
38616;BME280;24370;51.986;4.666;2023-10-09T03:31:01;101975.34;;;25.70;52.82
38616;BME280;24370;51.986;4.666;2023-10-09T03:33:28;101965.94;;;25.63;52.39
38616;BME280;24370;51.986;4.666;2023-10-09T03:35:59;101971.53;;;25.58;53.13
38616;BME280;24370;51.986;4.666;2023-10-09T03:38:25;101984.91;;;25.24;54.51
38616;BME280;24370;51.986;4.666;2023-10-09T03:40:54;101993.56;;;25.30;54.53
38616;BME280;24370;51.986;4.666;2023-10-09T03:43:19;102010.19;;;25.52;53.42
38616;BME280;24370;51.986;4.666;2023-10-09T03:45:46;102004.31;;;25.46;53.86
38616;BME280;24370;51.986;4.666;2023-10-09T03:48:18;102019.34;;;25.48;53.37
38616;BME280;24370;51.986;4.666;2023-10-09T03:50:51;102016.97;;;25.91;52.51
38616;BME280;24370;51.986;4.666;2023-10-09T03:53:33;102009.63;;;25.30;54.39
38616;BME280;24370;51.986;4.666;2023-10-09T03:56:01;102004.88;;;26.00;52.72
38616;BME280;24370;51.986;4.666;2023-10-09T03:58:30;101993.16;;;26.19;51.54
38616;BME280;24370;51.986;4.666;2023-10-09T04:00:58;101986.66;;;26.07;51.86
38616;BME280;24370;51.986;4.666;2023-10-09T04:03:24;101987.75;;;25.39;53.37
38616;BME280;24370;51.986;4.666;2023-10-09T04:05:49;101994.88;;;25.72;52.77
38616;BME280;24370;51.986;4.666;2023-10-09T04:08:18;102001.47;;;25.15;54.27
38616;BME280;24370;51.986;4.666;2023-10-09T04:10:54;102002.13;;;25.86;52.98
38616;BME280;24370;51.986;4.666;2023-10-09T04:13:24;102006.75;;;25.50;53.62
38616;BME280;24370;51.986;4.666;2023-10-09T04:15:58;102008.53;;;25.16;54.70
38616;BME280;24370;51.986;4.666;2023-10-09T04:18:24;102000.34;;;25.37;54.14
38616;BME280;24370;51.986;4.666;2023-10-09T04:20:58;101998.31;;;26.06;52.21
38616;BME280;24370;51.986;4.666;2023-10-09T04:23:45;101984.84;;;25.60;53.22
38616;BME280;24370;51.986;4.666;2023-10-09T04:26:34;101970.94;;;25.69;53.18
38616;BME280;24370;51.986;4.666;2023-10-09T04:29:00;101970.50;;;25.61;53.69
38616;BME280;24370;51.986;4.666;2023-10-09T04:31:27;101968.91;;;25.07;54.53
38616;BME280;24370;51.986;4.666;2023-10-09T04:33:59;101963.16;;;25.48;54.24
38616;BME280;24370;51.986;4.666;2023-10-09T04:36:44;101967.75;;;25.94;52.79
38616;BME280;24370;51.986;4.666;2023-10-09T04:39:12;101962.09;;;25.99;52.73
38616;BME280;24370;51.986;4.666;2023-10-09T04:41:37;101974.09;;;26.23;51.72
38616;BME280;24370;51.986;4.666;2023-10-09T04:44:09;101987.34;;;25.95;51.86
38616;BME280;24370;51.986;4.666;2023-10-09T04:46:55;101988.66;;;25.55;52.93
38616;BME280;24370;51.986;4.666;2023-10-09T04:49:43;101990.34;;;25.56;52.83
38616;BME280;24370;51.986;4.666;2023-10-09T04:52:29;101992.41;;;25.35;53.56
38616;BME280;24370;51.986;4.666;2023-10-09T04:54:54;101998.19;;;25.10;54.54
38616;BME280;24370;51.986;4.666;2023-10-09T04:57:32;101989.44;;;26.21;51.64
38616;BME280;24370;51.986;4.666;2023-10-09T05:00:07;101986.28;;;25.81;53.05
38616;BME280;24370;51.986;4.666;2023-10-09T05:02:48;101988.13;;;25.97;51.93
38616;BME280;24370;51.986;4.666;2023-10-09T05:05:26;102000.69;;;25.47;53.37
38616;BME280;24370;51.986;4.666;2023-10-09T05:08:11;102004.09;;;25.66;52.57
38616;BME280;24370;51.986;4.666;2023-10-09T05:11:01;102016.66;;;25.15;54.39
38616;BME280;24370;51.986;4.666;2023-10-09T05:13:34;102022.34;;;26.07;51.93
38616;BME280;24370;51.986;4.666;2023-10-09T05:16:13;102029.09;;;26.15;51.31
38616;BME280;24370;51.986;4.666;2023-10-09T05:18:46;102026.81;;;25.75;52.13
38616;BME280;24370;51.986;4.666;2023-10-09T05:21:28;102028.44;;;26.41;50.83
38616;BME280;24370;51.986;4.666;2023-10-09T05:24:02;102027.09;;;25.19;53.92
38616;BME280;24370;51.986;4.666;2023-10-09T05:26:37;102022.44;;;24.89;55.16
38616;BME280;24370;51.986;4.666;2023-10-09T05:29:11;102027.25;;;25.83;53.17
38616;BME280;24370;51.986;4.666;2023-10-09T05:31:55;102034.41;;;25.67;52.43
38616;BME280;24370;51.986;4.666;2023-10-09T05:34:45;102033.69;;;25.47;53.73
38616;BME280;24370;51.986;4.666;2023-10-09T05:37:41;102029.94;;;25.16;54.61
38616;BME280;24370;51.986;4.666;2023-10-09T05:40:09;102019.56;;;25.93;52.05
38616;BME280;24370;51.986;4.666;2023-10-09T05:42:40;102040.63;;;26.47;50.26
38616;BME280;24370;51.986;4.666;2023-10-09T05:45:07;102018.63;;;26.56;49.98
38616;BME280;24370;51.986;4.666;2023-10-09T05:47:42;102016.53;;;25.51;52.74
38616;BME280;24370;51.986;4.666;2023-10-09T05:50:33;102012.41;;;26.26;50.47
38616;BME280;24370;51.986;4.666;2023-10-09T05:53:38;102003.81;;;25.87;51.40
38616;BME280;24370;51.986;4.666;2023-10-09T05:56:10;102004.34;;;25.94;50.65
38616;BME280;24370;51.986;4.666;2023-10-09T05:58:54;101989.41;;;25.89;51.15
38616;BME280;24370;51.986;4.666;2023-10-09T06:01:40;101972.88;;;24.82;53.57
38616;BME280;24370;51.986;4.666;2023-10-09T06:04:24;101970.84;;;24.52;55.27
38616;BME280;24370;51.986;4.666;2023-10-09T06:07:08;101964.81;;;26.15;51.29
38616;BME280;24370;51.986;4.666;2023-10-09T06:09:37;101990.09;;;25.77;51.62
38616;BME280;24370;51.986;4.666;2023-10-09T06:12:15;101992.63;;;25.80;51.89
38616;BME280;24370;51.986;4.666;2023-10-09T06:14:59;101996.31;;;24.95;53.36
38616;BME280;24370;51.986;4.666;2023-10-09T06:17:44;101980.88;;;25.67;51.63
38616;BME280;24370;51.986;4.666;2023-10-09T06:20:16;101969.63;;;25.44;52.81
38616;BME280;24370;51.986;4.666;2023-10-09T06:23:00;101945.44;;;25.94;51.64
38616;BME280;24370;51.986;4.666;2023-10-09T06:25:41;101978.09;;;26.16;50.44
38616;BME280;24370;51.986;4.666;2023-10-09T06:28:16;101996.75;;;26.34;49.69
38616;BME280;24370;51.986;4.666;2023-10-09T06:30:44;101997.09;;;25.96;51.11
38616;BME280;24370;51.986;4.666;2023-10-09T06:33:12;101994.94;;;26.49;49.19
38616;BME280;24370;51.986;4.666;2023-10-09T06:35:54;102004.38;;;26.26;50.42
38616;BME280;24370;51.986;4.666;2023-10-09T06:38:20;102007.06;;;26.86;48.36
38616;BME280;24370;51.986;4.666;2023-10-09T06:40:58;102024.03;;;27.01;47.95
38616;BME280;24370;51.986;4.666;2023-10-09T06:43:56;102015.41;;;26.96;47.97
38616;BME280;24370;51.986;4.666;2023-10-09T06:46:31;102028.38;;;27.04;47.76
38616;BME280;24370;51.986;4.666;2023-10-09T06:49:09;102042.19;;;26.82;48.28
38616;BME280;24370;51.986;4.666;2023-10-09T06:52:03;102051.03;;;26.98;48.00
38616;BME280;24370;51.986;4.666;2023-10-09T06:54:40;102053.50;;;27.32;46.88
38616;BME280;24370;51.986;4.666;2023-10-09T06:57:15;102037.75;;;27.25;47.19
38616;BME280;24370;51.986;4.666;2023-10-09T07:00:01;102029.94;;;27.37;46.96
38616;BME280;24370;51.986;4.666;2023-10-09T07:02:55;102025.91;;;26.54;48.93
38616;BME280;24370;51.986;4.666;2023-10-09T07:05:22;102041.69;;;25.97;50.32
38616;BME280;24370;51.986;4.666;2023-10-09T07:07:56;102036.06;;;26.01;50.42
38616;BME280;24370;51.986;4.666;2023-10-09T07:10:41;102040.97;;;25.77;50.28
38616;BME280;24370;51.986;4.666;2023-10-09T07:13:06;102034.31;;;26.48;49.08
38616;BME280;24370;51.986;4.666;2023-10-09T07:15:32;102006.41;;;26.97;47.74
38616;BME280;24370;51.986;4.666;2023-10-09T07:18:16;101989.94;;;27.03;47.76
38616;BME280;24370;51.986;4.666;2023-10-09T07:20:48;101981.97;;;25.29;52.35
38616;BME280;24370;51.986;4.666;2023-10-09T07:23:25;102000.97;;;26.38;49.87
38616;BME280;24370;51.986;4.666;2023-10-09T07:26:01;101996.47;;;26.22;50.16
38616;BME280;24370;51.986;4.666;2023-10-09T07:28:42;102005.22;;;25.78;50.92
38616;BME280;24370;51.986;4.666;2023-10-09T07:31:15;102003.34;;;26.12;50.59
38616;BME280;24370;51.986;4.666;2023-10-09T07:33:53;102006.78;;;26.30;50.36
38616;BME280;24370;51.986;4.666;2023-10-09T07:36:25;102000.88;;;25.44;52.87
38616;BME280;24370;51.986;4.666;2023-10-09T07:39:01;102006.38;;;26.52;50.00
38616;BME280;24370;51.986;4.666;2023-10-09T07:41:31;102015.75;;;25.81;51.62
38616;BME280;24370;51.986;4.666;2023-10-09T07:43:57;102010.69;;;26.55;50.71
38616;BME280;24370;51.986;4.666;2023-10-09T07:46:22;101994.34;;;25.81;52.24
38616;BME280;24370;51.986;4.666;2023-10-09T07:49:06;102002.44;;;25.14;53.93
38616;BME280;24370;51.986;4.666;2023-10-09T07:51:36;101986.38;;;26.28;51.77
38616;BME280;24370;51.986;4.666;2023-10-09T07:54:02;101982.09;;;26.09;52.09
38616;BME280;24370;51.986;4.666;2023-10-09T07:56:34;101980.59;;;26.03;51.73
38616;BME280;24370;51.986;4.666;2023-10-09T07:59:19;101987.41;;;24.05;57.84
38616;BME280;24370;51.986;4.666;2023-10-09T08:01:46;101990.38;;;25.88;52.77
38616;BME280;24370;51.986;4.666;2023-10-09T08:04:22;101984.38;;;26.62;51.03
38616;BME280;24370;51.986;4.666;2023-10-09T08:07:03;101990.78;;;26.75;50.09
38616;BME280;24370;51.986;4.666;2023-10-09T08:09:32;101995.28;;;27.32;49.03
38616;BME280;24370;51.986;4.666;2023-10-09T08:12:12;102010.59;;;26.56;50.33
38616;BME280;24370;51.986;4.666;2023-10-09T08:15:06;102023.56;;;27.09;49.20
38616;BME280;24370;51.986;4.666;2023-10-09T08:20:32;102035.22;;;26.94;49.17
38616;BME280;24370;51.986;4.666;2023-10-09T08:23:33;102053.03;;;28.24;46.69
38616;BME280;24370;51.986;4.666;2023-10-09T08:26:04;102063.63;;;28.40;46.03
38616;BME280;24370;51.986;4.666;2023-10-09T08:28:43;102062.84;;;27.97;46.96
38616;BME280;24370;51.986;4.666;2023-10-09T08:31:12;102064.56;;;25.86;51.27
38616;BME280;24370;51.986;4.666;2023-10-09T08:33:56;102071.06;;;27.37;48.72
38616;BME280;24370;51.986;4.666;2023-10-09T08:36:24;102069.81;;;26.98;49.85
38616;BME280;24370;51.986;4.666;2023-10-09T08:38:56;102070.53;;;28.44;46.70
38616;BME280;24370;51.986;4.666;2023-10-09T08:41:23;102076.41;;;27.95;47.16
38616;BME280;24370;51.986;4.666;2023-10-09T08:43:56;102076.88;;;27.87;47.16
38616;BME280;24370;51.986;4.666;2023-10-09T08:46:26;102080.94;;;28.64;46.22
38616;BME280;24370;51.986;4.666;2023-10-09T08:48:56;102096.06;;;27.67;48.27
38616;BME280;24370;51.986;4.666;2023-10-09T08:51:24;102093.69;;;28.87;45.69
38616;BME280;24370;51.986;4.666;2023-10-09T08:53:53;102100.81;;;28.88;45.48
38616;BME280;24370;51.986;4.666;2023-10-09T08:56:20;102106.03;;;28.08;47.45
38616;BME280;24370;51.986;4.666;2023-10-09T08:58:54;102116.22;;;27.88;48.00
38616;BME280;24370;51.986;4.666;2023-10-09T09:01:20;102112.97;;;27.54;48.69
38616;BME280;24370;51.986;4.666;2023-10-09T09:03:48;102112.88;;;27.41;49.05
38616;BME280;24370;51.986;4.666;2023-10-09T09:06:16;102118.72;;;27.77;48.70
38616;BME280;24370;51.986;4.666;2023-10-09T09:08:43;102115.38;;;27.88;48.55
38616;BME280;24370;51.986;4.666;2023-10-09T09:11:16;102105.56;;;27.43;49.46
38616;BME280;24370;51.986;4.666;2023-10-09T09:14:01;102110.88;;;28.03;48.31
38616;BME280;24370;51.986;4.666;2023-10-09T09:16:31;102109.31;;;28.95;46.65
38616;BME280;24370;51.986;4.666;2023-10-09T09:19:03;102124.34;;;28.57;46.76
38616;BME280;24370;51.986;4.666;2023-10-09T09:21:33;102122.41;;;28.59;46.18
38616;BME280;24370;51.986;4.666;2023-10-09T09:24:13;102124.78;;;28.37;45.67
38616;BME280;24370;51.986;4.666;2023-10-09T09:27:10;102119.28;;;27.97;45.33
38616;BME280;24370;51.986;4.666;2023-10-09T09:29:44;102122.78;;;28.40;44.31
38616;BME280;24370;51.986;4.666;2023-10-09T09:32:27;102124.69;;;28.38;43.85
38616;BME280;24370;51.986;4.666;2023-10-09T09:35:01;102114.38;;;28.45;44.18
38616;BME280;24370;51.986;4.666;2023-10-09T09:37:28;102113.56;;;28.57;43.60
38616;BME280;24370;51.986;4.666;2023-10-09T09:39:58;102120.53;;;28.05;44.62
38616;BME280;24370;51.986;4.666;2023-10-09T09:42:27;102109.09;;;28.85;43.58
38616;BME280;24370;51.986;4.666;2023-10-09T09:44:53;102124.50;;;28.41;43.88
38616;BME280;24370;51.986;4.666;2023-10-09T09:47:18;102124.97;;;28.48;44.04
38616;BME280;24370;51.986;4.666;2023-10-09T09:49:56;102117.03;;;28.59;44.11
38616;BME280;24370;51.986;4.666;2023-10-09T09:52:30;102124.09;;;27.77;45.18
38616;BME280;24370;51.986;4.666;2023-10-09T09:55:05;102123.69;;;27.83;44.88
38616;BME280;24370;51.986;4.666;2023-10-09T09:57:31;102121.78;;;28.00;44.93
38616;BME280;24370;51.986;4.666;2023-10-09T09:59:58;102116.50;;;28.13;44.46
38616;BME280;24370;51.986;4.666;2023-10-09T10:02:30;102111.66;;;28.59;43.81
38616;BME280;24370;51.986;4.666;2023-10-09T10:05:01;102109.06;;;29.25;42.07
38616;BME280;24370;51.986;4.666;2023-10-09T10:07:31;102114.88;;;29.45;42.22
38616;BME280;24370;51.986;4.666;2023-10-09T10:10:01;102121.00;;;27.83;45.08
38616;BME280;24370;51.986;4.666;2023-10-09T10:16:18;102114.94;;;28.65;43.28
38616;BME280;24370;51.986;4.666;2023-10-09T10:18:58;102117.91;;;29.00;42.59
38616;BME280;24370;51.986;4.666;2023-10-09T10:21:48;102123.28;;;28.87;42.97
38616;BME280;24370;51.986;4.666;2023-10-09T10:33:00;102129.13;;;28.67;43.14
38616;BME280;24370;51.986;4.666;2023-10-09T10:35:35;102129.28;;;28.09;44.61
38616;BME280;24370;51.986;4.666;2023-10-09T10:38:32;102126.38;;;29.21;42.35
38616;BME280;24370;51.986;4.666;2023-10-09T10:41:16;102136.03;;;28.71;43.12
38616;BME280;24370;51.986;4.666;2023-10-09T10:43:43;102135.53;;;29.32;42.00
38616;BME280;24370;51.986;4.666;2023-10-09T10:46:14;102143.72;;;28.77;42.84
38616;BME280;24370;51.986;4.666;2023-10-09T10:48:41;102149.31;;;28.18;43.97
38616;BME280;24370;51.986;4.666;2023-10-09T10:51:12;102141.28;;;29.00;42.77
38616;BME280;24370;51.986;4.666;2023-10-09T10:53:50;102148.63;;;28.70;42.71
38616;BME280;24370;51.986;4.666;2023-10-09T10:56:18;102151.97;;;28.74;43.31
38616;BME280;24370;51.986;4.666;2023-10-09T10:58:54;102147.66;;;28.30;43.92
38616;BME280;24370;51.986;4.666;2023-10-09T11:01:32;102150.06;;;28.76;43.38
38616;BME280;24370;51.986;4.666;2023-10-09T11:04:17;102148.66;;;27.85;44.56
38616;BME280;24370;51.986;4.666;2023-10-09T11:06:55;102154.63;;;28.88;43.30
38616;BME280;24370;51.986;4.666;2023-10-09T11:09:57;102140.53;;;29.64;42.41
38616;BME280;24370;51.986;4.666;2023-10-09T11:12:29;102143.22;;;28.43;43.93
38616;BME280;24370;51.986;4.666;2023-10-09T11:15:08;102127.81;;;28.59;43.60
38616;BME280;24370;51.986;4.666;2023-10-09T11:18:14;102130.22;;;28.22;44.28
38616;BME280;24370;51.986;4.666;2023-10-09T11:20:53;102126.50;;;29.58;42.20
38616;BME280;24370;51.986;4.666;2023-10-09T11:23:29;102123.84;;;29.05;42.91
38616;BME280;24370;51.986;4.666;2023-10-09T11:26:05;102125.16;;;28.45;44.28
38616;BME280;24370;51.986;4.666;2023-10-09T11:32:05;102121.88;;;29.48;42.77
38616;BME280;24370;51.986;4.666;2023-10-09T11:34:32;102126.94;;;29.52;42.45
38616;BME280;24370;51.986;4.666;2023-10-09T11:37:01;102121.75;;;29.88;41.36
38616;BME280;24370;51.986;4.666;2023-10-09T11:39:31;102121.94;;;29.98;40.98
38616;BME280;24370;51.986;4.666;2023-10-09T11:42:14;102120.03;;;28.55;43.51
38616;BME280;24370;51.986;4.666;2023-10-09T11:44:41;102117.88;;;29.79;41.52
38616;BME280;24370;51.986;4.666;2023-10-09T11:47:10;102119.94;;;30.25;40.29
38616;BME280;24370;51.986;4.666;2023-10-09T11:50:03;102116.81;;;29.43;41.53
38616;BME280;24370;51.986;4.666;2023-10-09T11:52:32;102117.13;;;29.64;41.26
38616;BME280;24370;51.986;4.666;2023-10-09T11:55:04;102117.56;;;29.45;40.76
38616;BME280;24370;51.986;4.666;2023-10-09T11:57:40;102123.81;;;29.58;40.80
38616;BME280;24370;51.986;4.666;2023-10-09T12:00:05;102120.78;;;29.76;41.02
38616;BME280;24370;51.986;4.666;2023-10-09T12:02:49;102118.09;;;30.26;40.30
38616;BME280;24370;51.986;4.666;2023-10-09T12:05:15;102120.91;;;29.87;40.17
38616;BME280;24370;51.986;4.666;2023-10-09T12:07:49;102118.97;;;29.38;42.37
38616;BME280;24370;51.986;4.666;2023-10-09T12:10:20;102108.78;;;30.06;40.97
38616;BME280;24370;51.986;4.666;2023-10-09T12:12:54;102112.31;;;28.90;42.92
38616;BME280;24370;51.986;4.666;2023-10-09T12:15:23;102101.69;;;29.79;41.66
38616;BME280;24370;51.986;4.666;2023-10-09T12:17:49;102103.25;;;30.20;41.48
38616;BME280;24370;51.986;4.666;2023-10-09T12:20:15;102108.09;;;31.23;39.19
38616;BME280;24370;51.986;4.666;2023-10-09T12:23:00;102106.13;;;30.90;40.12
38616;BME280;24370;51.986;4.666;2023-10-09T12:25:26;102118.16;;;30.50;40.42
38616;BME280;24370;51.986;4.666;2023-10-09T12:27:52;102118.06;;;30.02;41.24
38616;BME280;24370;51.986;4.666;2023-10-09T12:30:23;102106.06;;;28.63;43.53
38616;BME280;24370;51.986;4.666;2023-10-09T12:32:55;102112.25;;;29.05;42.32
38616;BME280;24370;51.986;4.666;2023-10-09T12:35:25;102114.41;;;28.03;45.10
38616;BME280;24370;51.986;4.666;2023-10-09T12:37:54;102118.50;;;28.23;44.78
38616;BME280;24370;51.986;4.666;2023-10-09T12:40:23;102108.69;;;29.17;43.46
38616;BME280;24370;51.986;4.666;2023-10-09T12:42:56;102117.13;;;29.64;42.40
38616;BME280;24370;51.986;4.666;2023-10-09T12:45:25;102116.00;;;29.15;42.88
38616;BME280;24370;51.986;4.666;2023-10-09T12:47:58;102114.63;;;29.22;42.50
38616;BME280;24370;51.986;4.666;2023-10-09T12:50:34;102113.56;;;28.57;43.86
38616;BME280;24370;51.986;4.666;2023-10-09T12:53:00;102104.91;;;28.94;43.39
38616;BME280;24370;51.986;4.666;2023-10-09T12:55:41;102116.34;;;29.10;42.99
38616;BME280;24370;51.986;4.666;2023-10-09T12:58:08;102123.34;;;29.13;42.50
38616;BME280;24370;51.986;4.666;2023-10-09T13:00:37;102131.22;;;28.61;43.80
38616;BME280;24370;51.986;4.666;2023-10-09T13:03:08;102123.47;;;29.24;42.72
38616;BME280;24370;51.986;4.666;2023-10-09T13:05:48;102119.84;;;29.51;42.38
38616;BME280;24370;51.986;4.666;2023-10-09T13:08:26;102130.25;;;28.77;43.51
38616;BME280;24370;51.986;4.666;2023-10-09T13:11:05;102124.44;;;29.75;41.43
38616;BME280;24370;51.986;4.666;2023-10-09T13:13:38;102117.28;;;28.42;44.08
38616;BME280;24370;51.986;4.666;2023-10-09T13:16:21;102121.34;;;29.30;42.44
38616;BME280;24370;51.986;4.666;2023-10-09T13:18:51;102122.28;;;29.80;41.81
38616;BME280;24370;51.986;4.666;2023-10-09T13:21:22;102118.72;;;29.54;41.85
38616;BME280;24370;51.986;4.666;2023-10-09T13:23:48;102121.53;;;29.52;41.86
38616;BME280;24370;51.986;4.666;2023-10-09T13:26:17;102121.91;;;28.94;42.72
38616;BME280;24370;51.986;4.666;2023-10-09T13:28:50;102121.72;;;29.10;42.35
38616;BME280;24370;51.986;4.666;2023-10-09T13:31:16;102122.06;;;29.83;41.50
38616;BME280;24370;51.986;4.666;2023-10-09T13:33:43;102122.84;;;29.34;42.11
38616;BME280;24370;51.986;4.666;2023-10-09T13:36:10;102120.22;;;29.84;41.83
38616;BME280;24370;51.986;4.666;2023-10-09T13:38:46;102110.00;;;29.63;41.86
38616;BME280;24370;51.986;4.666;2023-10-09T13:41:12;102100.53;;;29.32;42.56
38616;BME280;24370;51.986;4.666;2023-10-09T13:43:41;102111.09;;;29.73;42.22
38616;BME280;24370;51.986;4.666;2023-10-09T13:46:09;102114.09;;;29.17;42.87
38616;BME280;24370;51.986;4.666;2023-10-09T13:48:35;102112.03;;;29.08;43.38